Latest Weather Observations for Sheoaks

IDV60801

Issued at 9:02 pm EST Thursday 20 June 2019 (issued every 10 minutes, with the page automatically refreshed every 10 minutes)

About weather observations | Map of weather stations | Latest weather observations for VIC | Other Formats
Station Details ID: 087168 Name: SHEOAKS Lat: -37.91 Lon: 144.13 Height: 236.7 m
Data from the previous 72 hours. | See also: Recent months at Sheoaks
Date/Time
EST
Temp
°C
App
Temp
°C
Dew
Point
°C
Rel
Hum
%
Delta-T
°C
Wind Press
QNH
hPa
Press
MSL
hPa
Rain since
9am
mm
Dir  Spd
km/h
Gust
km/h
Spd
kts
Gust
kts
20/09:00pm 5.8 2.0 4.1 89 0.7 W 13 17 7 9 1026.7 1027.1 8.0
20/08:30pm 5.3 2.2 3.8 90 0.6 WNW 9 13 5 7 1026.7 1027.1 8.0
20/08:00pm 5.3 2.6 3.6 89 0.7 WNW 7 11 4 6 1026.5 1026.9 8.0
20/07:30pm 6.0 3.0 4.3 89 0.7 W 9 13 5 7 1026.4 1026.8 8.0
20/07:00pm 6.0 3.0 4.3 89 0.7 WNW 9 13 5 7 1026.2 1026.5 8.0
20/06:30pm 6.3 3.4 4.6 89 0.7 W 9 13 5 7 1025.9 1026.2 8.0
20/06:00pm 6.3 3.4 4.6 89 0.7 W 9 13 5 7 1025.6 1025.9 8.0
20/05:30pm 5.4 2.7 3.7 89 0.7 WNW 7 9 4 5 1025.4 1025.7 8.0
20/05:00pm 5.9 2.9 4.2 89 0.7 W 9 13 5 7 1025.1 1025.4 8.0
20/04:30pm 6.3 3.8 4.6 89 0.7 W 7 9 4 5 1025.0 1025.3 7.8
20/04:00pm 6.2 3.8 4.4 88 0.8 W 6 7 3 4 1025.1 1025.4 7.6
20/03:30pm 6.3 4.2 4.1 86 1.0 S 4 9 2 5 1024.9 1025.2 5.6
20/03:00pm 6.9 3.1 3.9 81 1.3 S 13 22 7 12 1024.6 1025.0 0.8
20/02:30pm 8.9 5.1 3.9 71 2.2 WSW 13 22 7 12 1024.4 1024.8 0.0
20/02:00pm 9.1 5.0 4.1 71 2.2 WSW 15 24 8 13 1024.5 1024.9 0.0
20/01:30pm 9.0 5.4 5.0 76 1.8 WSW 13 28 7 15 1024.9 1025.2 0.0
20/01:00pm 9.3 5.3 5.1 75 1.9 W 15 24 8 13 1025.1 1025.4 0.0
20/12:30pm 8.5 5.5 4.1 74 1.9 W 9 17 5 9 1025.4 1025.7 0.0
20/12:00pm 8.6 5.7 4.8 77 1.7 W 9 17 5 9 1025.8 1026.1 0.0
20/11:30am 8.2 4.5 4.4 77 1.7 WSW 13 20 7 11 1026.1 1026.4 0.0
20/11:00am 8.0 4.8 5.3 83 1.2 W 11 19 6 10 1026.3 1026.6 0.0
20/10:30am 6.8 3.5 4.6 86 1.0 W 11 15 6 8 1026.4 1026.8 0.0
20/10:00am 6.9 4.1 5.2 89 0.8 WNW 9 13 5 7 1026.3 1026.6 0.0
20/09:30am 5.7 3.1 4.3 91 0.6 NW 7 11 4 6 1026.2 1026.5 0.0
20/09:00am 4.9 2.1 3.4 90 0.6 NW 7 11 4 6 1026.2 1026.5 0.4
20/08:30am 4.9 2.1 3.4 90 0.6 WNW 7 15 4 8 1026.1 1026.4 0.4
20/08:00am 5.0 1.5 3.7 91 0.5 W 11 17 6 9 1026.0 1026.3 0.4
20/07:30am 5.3 2.3 4.1 92 0.5 WNW 9 13 5 7 1025.9 1026.2 0.4
20/07:00am 5.3 2.0 4.3 93 0.4 W 11 17 6 9 1025.7 1026.0 0.4
20/06:30am 5.3 1.6 4.4 94 0.4 W 13 17 7 9 1025.6 1025.9 0.4
20/06:00am 5.4 1.7 4.7 95 0.3 W 13 17 7 9 1025.6 1025.9 0.4
20/05:30am 5.4 3.1 4.7 95 0.3 W 6 7 3 4 1025.4 1025.7 0.4
20/05:00am 5.2 2.7 4.6 96 0.3 WNW 7 9 4 5 1025.3 1025.6 0.4
20/04:30am 4.0 1.4 3.4 96 0.2 NW 6 11 3 6 1025.2 1025.5 0.4
20/04:00am 3.1 0.4 2.4 95 0.3 NNW 6 7 3 4 1025.5 1025.8 0.4
20/03:30am 3.0 0.0 2.3 95 0.3 NNW 7 9 4 5 1025.5 1025.8 0.4
20/03:00am 3.2 0.5 2.5 95 0.3 N 6 7 3 4 1025.7 1026.0 0.4
20/02:30am 3.0 0.0 2.3 95 0.3 NNW 7 9 4 5 1025.6 1025.9 0.4
20/02:00am 2.5 -0.9 1.8 95 0.3 NNW 9 9 5 5 1025.7 1026.0 0.4
20/01:30am 2.5 -0.9 1.8 95 0.3 N 9 9 5 5 1025.7 1026.0 0.4
20/01:00am 2.5 -0.6 1.6 94 0.3 NNW 7 9 4 5 1025.9 1026.2 0.4
20/12:30am 2.5 -0.4 1.6 94 0.4 N 6 7 3 4 1026.1 1026.4 0.4
20/12:00am 3.1 0.1 2.2 94 0.4 N 7 7 4 4 1026.2 1026.5 0.4
 
Date/Time
EST
Temp
°C
App
Temp
°C
Dew
Point
°C
Rel
Hum
%
Delta-T
°C
Wind Press
QNH
hPa
Press
MSL
hPa
Rain since
9am
mm
Dir  Spd
km/h
Gust
km/h
Spd
kts
Gust
kts
19/11:30pm 3.6 0.9 2.6 93 0.4 N 6 9 3 5 1026.2 1026.5 0.4
19/11:00pm 4.0 1.2 3.0 93 0.4 NNW 7 7 4 4 1026.2 1026.5 0.4
19/10:30pm 4.5 2.7 3.5 93 0.4 NNW 2 4 1 2 1026.2 1026.5 0.4
19/10:00pm 4.8 2.3 3.8 93 0.4 N 6 6 3 3 1026.3 1026.6 0.4
19/09:30pm 5.0 2.5 3.8 92 0.5 N 6 6 3 3 1026.5 1026.9 0.4
19/09:00pm 4.9 2.4 3.6 91 0.5 NNW 6 6 3 3 1026.4 1026.8 0.4
19/08:30pm 5.8 3.8 4.3 90 0.7 NNW 4 6 2 3 1026.4 1026.8 0.4
19/08:00pm 6.5 4.6 4.8 89 0.7 NW 4 4 2 2 1026.4 1026.8 0.4
19/07:30pm 6.8 5.3 5.1 89 0.8 N 2 4 1 2 1026.4 1026.8 0.4
19/07:00pm 6.9 5.4 5.2 89 0.8 NNW 2 4 1 2 1026.3 1026.6 0.4
19/06:30pm 7.0 5.2 5.2 88 0.8 N 4 6 2 3 1026.2 1026.5 0.4
19/06:00pm 7.1 5.2 5.1 87 0.9 N 4 6 2 3 1026.1 1026.4 0.4
19/05:30pm 7.2 6.1 4.9 85 1.0 CALM 0 0 0 0 1025.9 1026.2 0.4
19/05:00pm 7.4 6.2 4.7 83 1.2 CALM 0 2 0 1 1025.8 1026.1 0.4
19/04:30pm 7.8 5.1 5.4 85 1.1 S 9 15 5 8 1025.9 1026.2 0.4
19/04:00pm 8.0 7.0 5.6 85 1.1 CALM 0 2 0 1 1025.7 1026.0 0.4
19/03:30pm 7.7 5.4 5.0 83 1.2 SW 6 11 3 6 1025.9 1026.2 0.4
19/03:00pm 9.6 7.0 4.4 70 2.3 WSW 7 13 4 7 1025.7 1026.0 0.0
19/02:30pm 10.0 6.6 4.0 66 2.7 W 11 19 6 10 1025.5 1025.8 0.0
19/02:00pm 9.5 6.4 3.7 67 2.5 WSW 9 15 5 8 1025.6 1025.9 0.0
19/01:30pm 9.4 5.9 3.6 67 2.6 WSW 11 17 6 9 1025.7 1026.0 0.0
19/01:00pm 9.4 5.7 4.4 71 2.2 W 13 19 7 10 1025.9 1026.2 0.0
19/12:30pm 9.2 6.2 4.0 70 2.3 WSW 9 15 5 8 1026.3 1026.6 0.0
19/12:00pm 8.9 5.6 4.3 73 2.0 W 11 15 6 8 1026.4 1026.8 0.0
19/11:30am 8.4 4.3 4.2 75 1.9 W 15 20 8 11 1026.6 1027.0 0.0
19/11:00am 7.9 3.8 4.3 78 1.6 W 15 22 8 12 1026.7 1027.1 0.0
19/10:30am 7.5 3.7 3.7 77 1.6 W 13 20 7 11 1026.7 1027.1 0.0
19/10:00am 7.0 2.8 3.6 79 1.5 W 15 22 8 12 1026.4 1026.8 0.0
19/09:30am 6.2 2.8 3.9 85 1.0 WNW 11 15 6 8 1026.0 1026.3 0.0
19/09:00am 4.9 1.7 3.1 88 0.7 NW 9 13 5 7 1025.9 1026.2 5.6
19/08:30am 3.7 0.3 2.1 89 0.6 NW 9 13 5 7 1025.7 1026.0 5.6
19/08:00am 2.7 -0.8 1.1 89 0.6 NW 9 13 5 7 1025.1 1025.4 5.4
19/07:30am 4.0 -0.1 2.4 89 0.6 WNW 13 19 7 10 1025.1 1025.4 5.4
19/07:00am 3.6 0.2 2.0 89 0.6 NW 9 13 5 7 1024.7 1025.1 5.4
19/06:30am 3.5 -0.3 1.9 89 0.6 NW 11 17 6 9 1024.3 1024.7 5.4
19/06:00am 3.5 -0.7 1.9 89 0.6 NW 13 20 7 11 1023.8 1024.2 5.4
19/05:30am 3.6 -0.2 1.6 87 0.8 NW 11 15 6 8 1023.6 1024.0 5.4
19/05:00am 3.8 0.0 2.0 88 0.7 NW 11 19 6 10 1023.5 1023.9 5.4
19/04:30am 3.8 0.0 2.0 88 0.7 WNW 11 15 6 8 1023.4 1023.8 5.4
19/04:00am 4.3 0.2 2.3 87 0.8 WNW 13 19 7 10 1023.4 1023.8 5.4
19/03:30am 4.2 0.5 2.2 87 0.8 WNW 11 15 6 8 1023.4 1023.8 5.4
19/03:00am 4.7 0.7 2.6 86 0.9 WNW 13 17 7 9 1023.5 1023.9 5.4
19/02:30am 5.0 1.0 2.9 86 0.9 WNW 13 22 7 12 1023.4 1023.8 5.4
19/02:00am 5.5 1.2 3.3 86 0.9 WNW 15 20 8 11 1023.2 1023.6 5.4
19/01:30am 5.6 1.7 3.6 87 0.9 WNW 13 19 7 10 1023.3 1023.7 5.4
19/01:00am 5.3 1.4 3.3 87 0.8 WNW 13 17 7 9 1023.2 1023.6 5.2
19/12:30am 5.2 1.2 3.1 86 0.9 WNW 13 20 7 11 1023.1 1023.5 5.2
19/12:00am 5.4 1.8 3.1 85 1.0 WNW 11 17 6 9 1023.3 1023.7 5.2
 
Date/Time
EST
Temp
°C
App
Temp
°C
Dew
Point
°C
Rel
Hum
%
Delta-T
°C
Wind Press
QNH
hPa
Press
MSL
hPa
Rain since
9am
mm
Dir  Spd
km/h
Gust
km/h
Spd
kts
Gust
kts
18/11:30pm 5.7 1.8 3.4 85 1.0 W 13 17 7 9 1023.3 1023.7 5.2
18/11:00pm 5.5 1.6 3.2 85 1.0 WNW 13 17 7 9 1023.1 1023.5 5.2
18/10:30pm 5.7 1.7 3.0 83 1.1 WNW 13 20 7 11 1022.9 1023.3 5.2
18/10:00pm 5.9 1.6 3.1 82 1.2 W 15 20 8 11 1022.9 1023.3 5.2
18/09:30pm 6.2 1.9 3.4 82 1.2 W 15 24 8 13 1022.6 1022.9 5.2
18/09:00pm 6.1 1.4 3.3 82 1.2 W 17 26 9 14 1022.4 1022.7 5.2
18/08:30pm 5.8 1.5 3.0 82 1.2 WNW 15 19 8 10 1022.3 1022.6 5.2
18/08:00pm 6.2 1.5 3.2 81 1.3 W 17 22 9 12 1022.0 1022.3 5.2
18/07:30pm 6.5 2.3 3.7 82 1.2 W 15 20 8 11 1021.7 1022.0 5.2
18/07:00pm 6.5 2.6 3.5 81 1.3 W 13 19 7 10 1021.3 1021.6 5.2
18/06:30pm 6.8 3.3 3.6 80 1.4 W 11 19 6 10 1021.1 1021.4 5.2
18/06:00pm 7.1 3.4 4.2 82 1.3 W 13 20 7 11 1020.7 1021.0 5.2
18/05:30pm 7.3 4.1 5.0 85 1.0 WNW 11 17 6 9 1020.2 1020.6 5.2
18/05:00pm 7.8 4.3 5.3 84 1.1 W 13 20 7 11 1019.9 1020.3 5.2
18/04:30pm 8.0 4.9 5.5 84 1.1 W 11 33 6 18 1019.6 1020.0 4.6
18/04:00pm 8.5 5.0 5.4 81 1.4 W 13 20 7 11 1019.3 1019.7 4.2
18/03:30pm 7.7 3.8 5.2 84 1.1 W 15 22 8 12 1019.2 1019.5 4.2
18/03:00pm 7.6 3.3 5.4 86 1.0 WNW 17 26 9 14 1019.0 1019.3 4.2
18/02:30pm 7.6 3.8 5.6 87 0.9 WNW 15 28 8 15 1018.7 1019.0 4.2
18/02:00pm 7.7 4.4 6.2 90 0.7 W 13 20 7 11 1018.6 1018.9 4.2
18/01:30pm 7.5 4.5 6.0 90 0.7 WSW 11 20 6 11 1018.6 1018.9 4.2
18/01:00pm 7.3 2.1 5.4 88 0.9 W 22 35 12 19 1018.4 1018.7 3.2
18/12:30pm 7.6 0.9 5.4 86 1.0 W 30 46 16 25 1018.2 1018.5 1.0
18/12:00pm 9.7 5.3 6.4 80 1.6 W 19 32 10 17 1017.8 1018.1 0.2
18/11:30am 9.2 3.8 6.3 82 1.4 W 24 33 13 18 1017.5 1017.8 0.2
18/11:00am 8.7 4.1 6.5 86 1.0 W 20 30 11 16 1017.7 1018.0 0.0
18/10:30am 9.3 4.6 6.2 81 1.4 WNW 20 33 11 18 1017.4 1017.7 0.0
18/10:00am 9.2 4.7 6.3 82 1.4 WNW 19 30 10 16 1017.2 1017.5 0.0
18/09:30am 8.8 5.5 6.6 86 1.0 NW 13 20 7 11 1016.7 1017.0 0.0
18/09:00am 8.4 5.1 6.4 87 0.9 NNW 13 20 7 11 1016.4 1016.7 0.6
18/08:30am 8.2 4.8 6.0 86 1.0 NNW 13 20 7 11 1016.2 1016.5 0.4
18/08:00am 8.4 4.2 5.9 84 1.2 NNW 17 24 9 13 1015.8 1016.2 0.0
18/07:30am 9.5 4.9 5.7 77 1.8 NW 19 35 10 19 1015.6 1015.9 0.0
18/07:00am 9.6 6.1 5.4 75 1.9 NW 13 19 7 10 1015.3 1015.6 0.0
18/06:30am 9.6 5.7 5.2 74 2.0 NNW 15 24 8 13 1014.9 1015.2 0.0
18/06:00am 9.7 4.8 5.3 74 2.0 NNW 20 28 11 15 1014.7 1015.0 0.0
18/05:30am 9.6 4.8 5.6 76 1.8 NNW 20 33 11 18 1014.5 1014.8 0.0
18/05:00am 9.6 4.0 5.6 76 1.8 NNW 24 33 13 18 1014.5 1014.8 0.0
18/04:30am 9.8 4.7 5.8 76 1.9 NNW 22 32 12 17 1014.8 1015.1 0.0
18/04:00am 10.0 4.9 6.0 76 1.9 NNW 22 35 12 19 1015.0 1015.3 0.0
18/03:30am 9.9 4.4 5.7 75 1.9 NNW 24 39 13 21 1015.4 1015.7 0.0
18/03:00am 10.3 5.2 6.1 75 2.0 N 22 39 12 21 1015.4 1015.7 0.0
18/02:30am 10.6 5.1 6.0 73 2.2 N 24 37 13 20 1016.1 1016.4 0.0
18/02:00am 11.1 5.2 5.8 70 2.5 NNW 26 46 14 25 1016.2 1016.5 0.0
18/01:30am 11.1 5.6 6.0 71 2.4 NNW 24 43 13 23 1016.2 1016.5 0.0
18/01:00am 11.5 6.7 5.6 67 2.8 NNW 20 32 11 17 1016.4 1016.7 0.0
18/12:30am 11.4 7.2 5.7 68 2.7 NNW 17 32 9 17 1016.6 1016.9 0.0
18/12:00am 11.4 7.2 5.7 68 2.7 NNW 17 28 9 15 1016.8 1017.1 0.0
 
Date/Time
EST
Temp
°C
App
Temp
°C
Dew
Point
°C
Rel
Hum
%
Delta-T
°C
Wind Press
QNH
hPa
Press
MSL
hPa
Rain since
9am
mm
Dir  Spd
km/h
Gust
km/h
Spd
kts
Gust
kts
17/11:30pm 11.3 5.7 5.6 68 2.7 N 24 37 13 20 1016.9 1017.2 0.0
17/11:00pm 11.4 6.3 5.9 69 2.6 N 22 35 12 19 1017.1 1017.4 0.0
17/10:30pm 11.1 6.5 6.5 73 2.2 N 20 37 11 20 1017.4 1017.7 0.0
17/10:00pm 10.5 6.2 6.8 78 1.8 N 19 28 10 15 1017.6 1017.9 0.0
17/09:30pm 10.4 6.5 6.9 79 1.7 N 17 28 9 15 1018.2 1018.5 0.0

Other formats

Comma delimited format used in spreadsheet applications
http://www.bom.gov.au/fwo/IDV60801/IDV60801.94863.axf

JavaScript Object Notation format (JSON) in row-major order
http://www.bom.gov.au/fwo/IDV60801/IDV60801.94863.json

Data quality

Most of these data are generated automatically and are frequently updated. Quality checks on data are not normally performed. It is possible for incorrect values to appear. Refer to information at About Latest Weather Observations and please check the disclaimer before using these data.